createdAt,value
2023-05-25T00:01:56.026Z,11.60
2023-05-25T00:04:48.530Z,11.50
2023-05-25T00:07:34.232Z,11.60
2023-05-25T00:10:19.889Z,11.40
2023-05-25T00:13:05.603Z,11.50
2023-05-25T00:15:51.193Z,11.40
2023-05-25T00:18:38.038Z,11.60
2023-05-25T00:21:25.755Z,11.70
2023-05-25T00:24:11.588Z,11.70
2023-05-25T00:26:58.107Z,11.90
2023-05-25T00:29:43.297Z,11.90
2023-05-25T00:32:28.566Z,11.90
2023-05-25T00:35:14.055Z,12.00
2023-05-25T00:37:59.897Z,12.10
2023-05-25T00:40:49.009Z,12.10
2023-05-25T00:43:35.311Z,12.20
2023-05-25T00:46:21.145Z,12.20
2023-05-25T00:49:06.854Z,12.20
2023-05-25T00:51:53.191Z,12.20
2023-05-25T00:54:39.303Z,12.20
2023-05-25T00:57:28.820Z,12.20
2023-05-25T01:00:17.614Z,12.20
2023-05-25T01:03:11.818Z,12.10
2023-05-25T01:05:58.115Z,12.10
2023-05-25T01:08:51.077Z,12.00
2023-05-25T01:11:40.113Z,11.90
2023-05-25T01:14:26.777Z,11.70
2023-05-25T01:17:12.578Z,11.70
2023-05-25T01:20:10.325Z,11.50
2023-05-25T01:23:13.844Z,11.50
2023-05-25T01:26:02.677Z,11.40
2023-05-25T01:28:52.906Z,11.40
2023-05-25T01:31:40.512Z,11.30
2023-05-25T01:34:26.868Z,11.30
2023-05-25T01:37:13.570Z,11.40
2023-05-25T01:39:59.397Z,11.30
2023-05-25T01:42:44.936Z,11.30
2023-05-25T01:45:35.360Z,11.10
2023-05-25T01:48:40.805Z,11.20
2023-05-25T01:52:15.772Z,11.20
2023-05-25T01:55:10.617Z,11.10
2023-05-25T01:57:59.123Z,11.00
2023-05-25T02:00:47.021Z,11.10
2023-05-25T02:03:32.856Z,11.00
2023-05-25T02:06:18.139Z,10.90
2023-05-25T02:09:03.611Z,10.90
2023-05-25T02:11:49.598Z,10.90
2023-05-25T02:14:35.447Z,10.90
2023-05-25T02:17:20.753Z,10.90
2023-05-25T02:20:08.335Z,10.80
2023-05-25T02:22:54.232Z,10.80
2023-05-25T02:25:39.513Z,10.70
2023-05-25T02:28:25.151Z,10.70
2023-05-25T02:31:10.510Z,10.70
2023-05-25T02:33:56.293Z,10.70
2023-05-25T02:36:43.501Z,10.60
2023-05-25T02:39:29.036Z,10.60
2023-05-25T02:42:14.690Z,10.50
2023-05-25T02:45:02.923Z,10.50
2023-05-25T02:47:48.185Z,10.40
2023-05-25T02:50:35.831Z,10.40
2023-05-25T02:53:21.264Z,10.40
2023-05-25T02:56:06.782Z,10.30
2023-05-25T02:58:52.127Z,10.40
2023-05-25T03:01:40.793Z,10.30
2023-05-25T03:04:26.838Z,10.30
2023-05-25T03:07:13.934Z,10.30
2023-05-25T03:10:00.002Z,10.20
2023-05-25T03:12:45.332Z,10.30
2023-05-25T03:15:30.660Z,10.20
2023-05-25T03:18:16.201Z,10.10
2023-05-25T03:21:01.538Z,10.10
2023-05-25T03:23:47.270Z,10.10
2023-05-25T03:26:33.414Z,10.10
2023-05-25T03:29:18.950Z,10.10
2023-05-25T03:32:05.008Z,10.00
2023-05-25T03:34:52.908Z,10.10
2023-05-25T03:37:38.862Z,10.10
2023-05-25T03:40:24.445Z,10.20
2023-05-25T03:43:09.838Z,10.10
2023-05-25T03:45:55.302Z,10.10
2023-05-25T03:48:41.355Z,10.10
2023-05-25T03:51:28.034Z,10.20
2023-05-25T03:54:16.572Z,10.20
2023-05-25T03:57:04.060Z,10.20
2023-05-25T03:59:52.142Z,10.20
2023-05-25T04:02:37.936Z,10.20
2023-05-25T04:05:23.730Z,10.30
2023-05-25T04:08:09.965Z,10.30
2023-05-25T04:10:58.214Z,10.40
2023-05-25T04:13:43.643Z,10.50
2023-05-25T04:16:32.266Z,10.60
2023-05-25T04:19:17.988Z,10.70
2023-05-25T04:22:03.533Z,10.80
2023-05-25T04:24:49.114Z,10.90
2023-05-25T04:27:34.670Z,11.10
2023-05-25T04:30:19.927Z,11.00
2023-05-25T04:33:11.608Z,10.90
2023-05-25T04:35:58.710Z,10.90
2023-05-25T04:38:48.154Z,11.00
2023-05-25T04:41:33.961Z,10.90
2023-05-25T04:44:20.125Z,10.90
2023-05-25T04:47:08.070Z,10.90
2023-05-25T04:49:53.807Z,10.90
2023-05-25T04:52:40.206Z,10.90
2023-05-25T04:55:25.633Z,11.00
2023-05-25T04:58:14.651Z,11.00
2023-05-25T05:01:02.998Z,11.10
2023-05-25T05:03:48.510Z,11.10
2023-05-25T05:06:34.734Z,11.10
2023-05-25T05:09:23.073Z,11.10
2023-05-25T05:12:12.747Z,11.20
2023-05-25T05:14:58.619Z,11.20
2023-05-25T05:17:44.102Z,11.30
2023-05-25T05:20:29.992Z,11.30
2023-05-25T05:23:15.776Z,11.30
2023-05-25T05:26:01.488Z,11.50
2023-05-25T05:28:47.417Z,11.50
2023-05-25T05:31:32.795Z,11.60
2023-05-25T05:34:18.322Z,11.70
2023-05-25T05:37:03.995Z,11.80
2023-05-25T05:39:53.267Z,11.80
2023-05-25T05:42:38.874Z,11.90
2023-05-25T05:45:25.085Z,12.10
2023-05-25T05:48:10.857Z,12.00
2023-05-25T05:50:56.685Z,12.10
2023-05-25T05:53:44.233Z,12.20
2023-05-25T05:56:29.493Z,12.20
2023-05-25T05:59:19.853Z,12.20
2023-05-25T06:02:08.115Z,12.30
2023-05-25T06:04:55.703Z,12.40
2023-05-25T06:07:41.320Z,12.50
2023-05-25T06:10:27.160Z,12.60
2023-05-25T06:13:12.681Z,12.60
2023-05-25T06:15:58.103Z,12.70
2023-05-25T06:18:43.626Z,12.70
2023-05-25T06:21:29.214Z,12.90
2023-05-25T06:24:15.925Z,13.00
2023-05-25T06:27:03.251Z,13.00
2023-05-25T06:29:53.049Z,13.10
2023-05-25T06:32:38.733Z,13.10
2023-05-25T06:35:24.085Z,13.30
2023-05-25T06:38:09.368Z,13.50
2023-05-25T06:40:57.128Z,13.60
2023-05-25T06:43:42.641Z,13.60
2023-05-25T06:46:31.846Z,13.70
2023-05-25T06:49:17.547Z,13.70
2023-05-25T06:52:04.980Z,13.80
2023-05-25T06:54:50.326Z,13.80
2023-05-25T06:57:38.574Z,13.80
2023-05-25T07:00:26.741Z,13.90
2023-05-25T07:03:12.204Z,13.90
2023-05-25T07:06:03.650Z,14.10
2023-05-25T07:08:49.127Z,14.30
2023-05-25T07:11:35.414Z,14.20
2023-05-25T07:14:20.998Z,14.40
2023-05-25T07:17:07.091Z,14.40
2023-05-25T07:19:53.075Z,14.40
2023-05-25T07:22:38.856Z,14.50
2023-05-25T07:25:28.145Z,14.60
2023-05-25T07:28:13.694Z,14.70
2023-05-25T07:30:59.560Z,14.90
2023-05-25T07:33:45.410Z,14.90
2023-05-25T07:36:34.280Z,15.00
2023-05-25T07:39:22.085Z,15.00
2023-05-25T07:42:08.042Z,15.00
2023-05-25T07:44:53.668Z,15.10
2023-05-25T07:47:39.410Z,15.20
2023-05-25T07:50:25.287Z,15.40
2023-05-25T07:53:10.603Z,15.50
2023-05-25T07:55:56.144Z,15.40
2023-05-25T07:58:41.502Z,15.60
2023-05-25T08:01:27.755Z,15.80
2023-05-25T08:04:16.243Z,15.90
2023-05-25T08:07:01.634Z,16.20
2023-05-25T08:09:47.637Z,16.30
2023-05-25T08:12:46.824Z,16.50
2023-05-25T08:15:33.175Z,16.60
2023-05-25T08:18:19.398Z,16.90
2023-05-25T08:21:05.321Z,17.00
2023-05-25T08:23:51.663Z,17.10
2023-05-25T08:26:54.405Z,17.20
2023-05-25T08:29:44.102Z,17.70
2023-05-25T08:32:29.834Z,17.80
2023-05-25T08:35:15.463Z,17.80
2023-05-25T08:38:00.651Z,17.80
2023-05-25T08:40:47.060Z,17.70
2023-05-25T08:43:38.164Z,17.40
2023-05-25T08:46:33.188Z,17.40
2023-05-25T08:49:19.017Z,17.20
2023-05-25T08:52:06.078Z,17.10
2023-05-25T08:54:54.539Z,17.40
2023-05-25T08:57:49.870Z,17.80
2023-05-25T09:00:40.282Z,18.30
2023-05-25T09:03:26.884Z,18.60
2023-05-25T09:06:12.852Z,18.40
2023-05-25T09:08:59.105Z,18.00
2023-05-25T09:11:49.916Z,17.80
2023-05-25T09:14:37.794Z,17.20
2023-05-25T09:17:23.248Z,17.30
2023-05-25T09:20:13.747Z,17.40
2023-05-25T09:23:03.211Z,17.80
2023-05-25T09:25:50.780Z,17.90
2023-05-25T09:28:45.015Z,17.80
2023-05-25T09:31:31.637Z,17.70
2023-05-25T09:34:20.548Z,18.00
2023-05-25T09:37:17.154Z,18.40
2023-05-25T09:40:06.523Z,18.30
2023-05-25T09:42:54.501Z,18.10
2023-05-25T09:45:40.317Z,18.00
2023-05-25T09:48:26.274Z,17.80
2023-05-25T09:51:14.542Z,18.10
2023-05-25T09:54:01.357Z,18.40
2023-05-25T09:56:46.982Z,18.90
2023-05-25T09:59:32.634Z,19.40
2023-05-25T10:02:18.468Z,19.20
2023-05-25T10:05:04.252Z,18.60
2023-05-25T10:07:53.216Z,18.30
2023-05-25T10:10:44.669Z,18.30
2023-05-25T10:13:34.141Z,18.20
2023-05-25T10:16:28.016Z,18.30
2023-05-25T10:19:21.890Z,18.50
2023-05-25T10:22:19.418Z,19.00
2023-05-25T10:25:19.956Z,19.00
2023-05-25T10:28:18.717Z,19.20
2023-05-25T10:31:05.567Z,19.00
2023-05-25T10:33:52.620Z,19.20
2023-05-25T10:36:41.636Z,19.70
2023-05-25T10:39:30.899Z,19.70
2023-05-25T10:42:18.960Z,19.50
2023-05-25T10:45:09.294Z,19.50
2023-05-25T10:47:54.861Z,19.70
2023-05-25T10:50:40.735Z,19.20
2023-05-25T10:53:26.160Z,19.40
2023-05-25T10:56:12.884Z,19.10
2023-05-25T10:58:58.686Z,19.10
2023-05-25T11:01:51.718Z,18.90
2023-05-25T11:04:39.987Z,19.80
2023-05-25T11:07:26.031Z,20.00
2023-05-25T11:10:14.452Z,19.60
2023-05-25T11:13:31.722Z,19.90
2023-05-25T11:16:27.868Z,19.90
2023-05-25T11:19:17.700Z,19.60
2023-05-25T11:22:18.025Z,20.40
2023-05-25T11:25:39.942Z,20.50
2023-05-25T11:28:28.873Z,20.40
2023-05-25T11:31:14.819Z,20.50
2023-05-25T11:34:05.223Z,20.60
2023-05-25T11:37:06.458Z,20.50
2023-05-25T11:39:53.429Z,20.30
2023-05-25T11:42:42.805Z,20.80
2023-05-25T11:45:34.734Z,21.80
2023-05-25T11:48:20.229Z,22.30
2023-05-25T11:51:06.755Z,21.50
2023-05-25T11:53:52.536Z,21.50
2023-05-25T11:56:38.285Z,20.50
2023-05-25T11:59:32.492Z,21.30
2023-05-25T12:02:19.239Z,21.80
2023-05-25T12:05:08.691Z,21.50
2023-05-25T12:07:56.757Z,22.00
2023-05-25T12:10:52.302Z,21.60
2023-05-25T12:13:41.159Z,22.40
2023-05-25T12:16:27.054Z,22.20
2023-05-25T12:19:15.771Z,21.20
2023-05-25T12:22:02.553Z,21.30
2023-05-25T12:24:50.228Z,21.00
2023-05-25T12:27:37.959Z,22.10
2023-05-25T12:30:28.629Z,22.50
2023-05-25T12:33:15.678Z,22.70
2023-05-25T12:36:01.228Z,21.20
2023-05-25T12:38:59.017Z,21.40
2023-05-25T12:41:54.354Z,21.50
2023-05-25T12:44:41.514Z,21.90
2023-05-25T12:47:28.726Z,21.30
2023-05-25T12:50:17.978Z,21.30
2023-05-25T12:53:04.388Z,21.70
2023-05-25T12:55:49.945Z,22.10
2023-05-25T12:58:36.039Z,25.20
2023-05-25T13:01:22.294Z,34.30
2023-05-25T13:04:07.885Z,36.60
2023-05-25T13:06:54.154Z,27.60
2023-05-25T13:09:40.027Z,24.40
2023-05-25T13:12:26.028Z,22.80
2023-05-25T13:15:17.555Z,21.90
2023-05-25T13:18:03.669Z,21.50
2023-05-25T13:20:51.778Z,21.00
2023-05-25T13:23:38.910Z,21.90
2023-05-25T13:26:27.288Z,32.50
2023-05-25T13:29:12.804Z,31.10
2023-05-25T13:31:58.096Z,27.50
2023-05-25T13:34:43.707Z,24.60
2023-05-25T13:37:29.174Z,23.40
2023-05-25T13:40:19.940Z,32.80
2023-05-25T13:43:05.424Z,36.00
2023-05-25T13:45:51.789Z,36.10
2023-05-25T13:48:37.241Z,39.40
2023-05-25T13:51:25.300Z,43.30
2023-05-25T13:54:12.962Z,40.00
2023-05-25T13:56:58.436Z,36.80
2023-05-25T13:59:44.380Z,32.60
2023-05-25T14:02:34.110Z,27.90
2023-05-25T14:05:20.280Z,29.20
2023-05-25T14:08:07.893Z,32.60
2023-05-25T14:10:53.455Z,30.00
2023-05-25T14:13:42.239Z,28.20
2023-05-25T14:16:28.617Z,33.20
2023-05-25T14:19:16.689Z,37.50
2023-05-25T14:22:12.473Z,39.30
2023-05-25T14:25:00.383Z,37.90
2023-05-25T14:27:46.869Z,38.70
2023-05-25T14:30:32.926Z,40.30
2023-05-25T14:33:18.806Z,38.60
2023-05-25T14:36:06.691Z,37.40
2023-05-25T14:38:52.187Z,33.50
2023-05-25T14:41:37.823Z,32.80
2023-05-25T14:44:23.433Z,31.70
2023-05-25T14:47:08.845Z,31.00
2023-05-25T14:49:54.133Z,33.40
2023-05-25T14:52:39.871Z,32.00
2023-05-25T14:55:25.734Z,29.80
2023-05-25T14:58:11.419Z,26.40
2023-05-25T15:00:56.963Z,24.40
2023-05-25T15:03:44.968Z,24.60
2023-05-25T15:06:32.051Z,24.20
2023-05-25T15:09:20.064Z,24.40
2023-05-25T15:12:06.505Z,25.60
2023-05-25T15:14:53.781Z,25.30
2023-05-25T15:17:41.356Z,23.80
2023-05-25T15:20:29.040Z,24.00
2023-05-25T15:23:14.873Z,24.50
2023-05-25T15:26:04.623Z,24.60
2023-05-25T15:28:50.418Z,24.00
2023-05-25T15:31:36.211Z,24.90
2023-05-25T15:34:21.959Z,23.90
2023-05-25T15:37:07.750Z,23.20
2023-05-25T15:39:53.298Z,22.60
2023-05-25T15:42:40.726Z,23.00
2023-05-25T15:45:26.513Z,22.50
2023-05-25T15:48:11.789Z,23.60
2023-05-25T15:50:57.329Z,23.60
2023-05-25T15:53:43.221Z,22.50
2023-05-25T15:56:28.552Z,22.30
2023-05-25T15:59:16.700Z,21.50
2023-05-25T16:02:02.304Z,21.20
2023-05-25T16:04:48.123Z,21.40
2023-05-25T16:07:33.958Z,21.10
2023-05-25T16:10:21.701Z,21.20
2023-05-25T16:13:07.587Z,21.20
2023-05-25T16:15:53.515Z,21.10
2023-05-25T16:18:39.199Z,20.70
2023-05-25T16:21:24.995Z,21.20
2023-05-25T16:24:10.232Z,20.80
2023-05-25T16:26:57.598Z,20.80
2023-05-25T16:29:43.505Z,20.40
2023-05-25T16:32:29.569Z,20.40
2023-05-25T16:35:17.776Z,20.30
2023-05-25T16:38:04.099Z,20.20
2023-05-25T16:40:51.868Z,20.20
2023-05-25T16:43:37.620Z,20.10
2023-05-25T16:46:25.203Z,20.00
2023-05-25T16:49:10.792Z,19.90
2023-05-25T16:51:56.516Z,19.90
2023-05-25T16:54:45.141Z,19.90
2023-05-25T16:57:31.047Z,19.60
2023-05-25T17:00:16.791Z,19.50
2023-05-25T17:03:02.329Z,19.60
2023-05-25T17:05:47.794Z,19.50
2023-05-25T17:08:34.060Z,19.60
2023-05-25T17:11:19.582Z,19.60
2023-05-25T17:14:05.056Z,19.50
2023-05-25T17:16:50.753Z,19.30
2023-05-25T17:19:36.565Z,19.10
2023-05-25T17:22:22.445Z,19.00
2023-05-25T17:25:09.178Z,19.00
2023-05-25T17:27:56.850Z,18.90
2023-05-25T17:30:43.306Z,19.00
2023-05-25T17:33:29.202Z,19.00
2023-05-25T17:36:14.975Z,18.90
2023-05-25T17:39:02.694Z,18.70
2023-05-25T17:41:49.680Z,18.80
2023-05-25T17:44:40.134Z,18.60
2023-05-25T17:47:27.300Z,18.70
2023-05-25T17:50:15.371Z,18.60
2023-05-25T17:53:01.702Z,18.50
2023-05-25T17:55:49.720Z,18.40
2023-05-25T17:58:35.647Z,18.30
2023-05-25T18:01:21.219Z,18.20
2023-05-25T18:04:06.850Z,18.10
2023-05-25T18:06:52.747Z,18.10
2023-05-25T18:09:40.696Z,17.90
2023-05-25T18:12:26.255Z,17.90
2023-05-25T18:15:12.834Z,17.80
2023-05-25T18:17:58.422Z,17.70
2023-05-25T18:20:44.877Z,17.70
2023-05-25T18:23:30.598Z,17.50
2023-05-25T18:26:18.540Z,17.40
2023-05-25T18:29:04.406Z,17.40
2023-05-25T18:31:52.498Z,17.30
2023-05-25T18:34:37.891Z,17.20
2023-05-25T18:37:24.502Z,17.10
2023-05-25T18:40:13.108Z,17.00
2023-05-25T18:43:00.950Z,17.00
2023-05-25T18:45:46.461Z,16.90
2023-05-25T18:48:32.441Z,16.80
2023-05-25T18:51:23.153Z,16.70
2023-05-25T18:54:10.539Z,16.70
2023-05-25T18:56:56.181Z,16.60
2023-05-25T18:59:42.037Z,16.60
2023-05-25T19:02:30.477Z,16.50
2023-05-25T19:05:16.085Z,16.50
2023-05-25T19:08:01.840Z,16.40
2023-05-25T19:10:47.289Z,16.20
2023-05-25T19:13:32.921Z,16.10
2023-05-25T19:16:21.069Z,16.10
2023-05-25T19:19:06.720Z,16.10
2023-05-25T19:21:53.814Z,16.00
2023-05-25T19:24:42.639Z,16.00
2023-05-25T19:27:29.823Z,15.70
2023-05-25T19:30:18.233Z,15.60
2023-05-25T19:33:03.548Z,15.70
2023-05-25T19:35:49.220Z,15.50
2023-05-25T19:38:41.336Z,15.60
2023-05-25T19:41:28.096Z,15.50
2023-05-25T19:44:13.911Z,15.50
2023-05-25T19:47:02.426Z,15.40
2023-05-25T19:49:48.245Z,15.50
2023-05-25T19:52:34.641Z,15.40
2023-05-25T19:55:23.088Z,15.50
2023-05-25T19:58:09.370Z,15.50
2023-05-25T20:00:54.807Z,15.40
2023-05-25T20:03:40.264Z,15.40
2023-05-25T20:06:26.005Z,15.30
2023-05-25T20:09:14.379Z,15.30
2023-05-25T20:12:00.793Z,15.30
2023-05-25T20:14:46.416Z,15.30
2023-05-25T20:17:32.828Z,15.30
2023-05-25T20:20:18.710Z,15.30
2023-05-25T20:23:07.273Z,15.10
2023-05-25T20:25:52.759Z,15.10
2023-05-25T20:28:38.583Z,15.10
2023-05-25T20:31:27.612Z,15.00
2023-05-25T20:34:13.605Z,15.00
2023-05-25T20:36:59.032Z,14.90
2023-05-25T20:39:44.563Z,14.90
2023-05-25T20:42:32.204Z,14.80
2023-05-25T20:45:20.342Z,14.80
2023-05-25T20:48:08.351Z,14.60
2023-05-25T20:50:58.589Z,14.70
2023-05-25T20:53:44.455Z,14.60
2023-05-25T20:56:35.734Z,14.50
2023-05-25T20:59:23.517Z,14.40
2023-05-25T21:02:19.099Z,14.40
2023-05-25T21:05:07.061Z,14.30
2023-05-25T21:07:59.876Z,14.30
2023-05-25T21:10:52.097Z,14.30
2023-05-25T21:13:42.418Z,14.20
2023-05-25T21:16:28.977Z,14.10
2023-05-25T21:19:17.878Z,14.10
2023-05-25T21:22:03.867Z,14.10
2023-05-25T21:24:50.124Z,14.00
2023-05-25T21:27:36.046Z,14.00
2023-05-25T21:30:24.280Z,14.00
2023-05-25T21:33:09.972Z,14.00
2023-05-25T21:35:55.434Z,14.00
2023-05-25T21:38:43.499Z,13.90
2023-05-25T21:41:31.632Z,13.90
2023-05-25T21:44:19.337Z,13.90
2023-05-25T21:47:05.127Z,13.80
2023-05-25T21:49:52.949Z,13.80
2023-05-25T21:52:41.569Z,13.80
2023-05-25T21:55:27.265Z,13.80
2023-05-25T21:58:13.825Z,13.80
2023-05-25T22:00:59.677Z,13.80
2023-05-25T22:03:45.085Z,13.80
2023-05-25T22:06:30.910Z,13.80
2023-05-25T22:09:18.793Z,13.80
2023-05-25T22:12:05.056Z,13.80
2023-05-25T22:14:50.525Z,13.80
2023-05-25T22:17:36.140Z,13.80
2023-05-25T22:20:24.078Z,13.80
2023-05-25T22:23:12.381Z,13.80
2023-05-25T22:25:57.861Z,13.80
2023-05-25T22:28:43.198Z,13.70
2023-05-25T22:31:28.925Z,13.70
2023-05-25T22:34:14.711Z,13.60
2023-05-25T22:37:03.903Z,13.60
2023-05-25T22:39:49.765Z,13.50
2023-05-25T22:42:35.416Z,13.40
2023-05-25T22:45:21.522Z,13.40
2023-05-25T22:48:08.183Z,13.30
2023-05-25T22:50:53.917Z,13.20
2023-05-25T22:53:40.365Z,13.20
2023-05-25T22:56:26.335Z,13.00
2023-05-25T22:59:13.025Z,13.00
2023-05-25T23:01:58.656Z,12.90
2023-05-25T23:04:46.953Z,12.80
2023-05-25T23:07:34.764Z,12.70
2023-05-25T23:10:20.695Z,12.70
2023-05-25T23:13:10.750Z,12.60
2023-05-25T23:15:57.423Z,12.50
2023-05-25T23:18:43.474Z,12.40
2023-05-25T23:21:31.546Z,12.30
2023-05-25T23:24:22.163Z,12.10
2023-05-25T23:27:10.105Z,12.20
2023-05-25T23:29:55.798Z,11.90
2023-05-25T23:32:41.274Z,12.00
2023-05-25T23:35:27.697Z,11.80
2023-05-25T23:38:13.050Z,11.90
2023-05-25T23:40:58.648Z,11.90
2023-05-25T23:43:44.052Z,11.80
2023-05-25T23:46:31.785Z,11.80
2023-05-25T23:49:17.417Z,11.70
2023-05-25T23:52:03.184Z,11.60
2023-05-25T23:54:50.920Z,11.60
2023-05-25T23:57:36.662Z,11.40
